Sincerity Ace — 3FFD7 — position and weather

sailwx.info

Track history (hours):
 
Tides and Currents Weather Stations Pressure Air Temp Water Temp Dewpoint Dewpoint Depression Visibility Wind Speed Wind Dir Waves Ship Positions

Sincerity Ace

Last reported at 2015-Feb-28 15:31 UTC. Time now 2015-Feb-28 16:02 UTC.
Position N 51°16' E 004°14'.

Length 200 m; draft 8.9 m.

Type: Cargo ship. MMSI: 351690000.

Date/timePositionNaut miles runAvg speedWind from/ knotsBaromVisibWave heightAir tempDewpointWater temp
2015-Feb-28 15:31N 51°16' E 004°14'0 0.0
2015-Feb-28 14:31N 51°16' E 004°14'0 0.0
2015-Feb-28 13:31N 51°16' E 004°14'0 0.0
2015-Feb-28 12:31N 51°16' E 004°14'0 0.0
2015-Feb-28 11:28N 51°16' E 004°14'0 0.0
2015-Feb-28 10:31N 51°16' E 004°14'0 0.0
2015-Feb-28 09:31N 51°16' E 004°14'0 0.0
2015-Feb-28 08:31N 51°16' E 004°14'0 0.0
2015-Feb-28 07:31N 51°16' E 004°14'0 0.0
2015-Feb-28 06:31N 51°16' E 004°14'1 1.1
2015-Feb-28 05:34N 51°16' E 004°16'0 0.4
2015-Feb-28 04:34N 51°16' E 004°17'4 4.5
2015-Feb-28 03:34N 51°20' E 004°16'7 6.6
2015-Feb-28 02:33N 51°22' E 004°06'8 8.0
2015-Feb-28 01:33N 51°21' E 003°53'1110.9
2015-Feb-28 00:33N 51°26' E 003°38'10 9.9
2015-Feb-27 23:33N 51°24' E 003°22'7 7.1
2015-Feb-27 22:33N 51°20' E 003°13'1 0.8
2015-Feb-27 21:33N 51°19' E 003°13'1 0.9
2015-Feb-27 20:32N 51°18' E 003°14'0 0.0
2015-Feb-27 19:32N 51°18' E 003°14'0 0.0
2015-Feb-27 18:32N 51°18' E 003°14'0 0.0
2015-Feb-27 17:32N 51°18' E 003°14'0 0.0
2015-Feb-27 16:32N 51°18' E 003°14'0 0.0
2015-Feb-27 15:32N 51°18' E 003°14'0 0.0
2015-Feb-27 14:32N 51°18' E 003°14'0 0.0
2015-Feb-27 13:32N 51°18' E 003°14'0 0.0
2015-Feb-27 12:32N 51°18' E 003°14'0 0.0
2015-Feb-27 11:32N 51°18' E 003°14'0 0.0
2015-Feb-27 10:33N 51°18' E 003°14'1 0.6
2015-Feb-27 09:33N 51°19' E 003°13'1 1.1
2015-Feb-27 08:33N 51°20' E 003°13'9 8.9
2015-Feb-27 07:33N 51°23' E 003°00'1212.3
2015-Feb-27 06:33N 51°22' E 002°40'1616.1
2015-Feb-27 05:33N 51°17' E 002°16'1817.8
2015-Feb-27 04:33N 51°08' E 001°52'1717.4
2015-Feb-27 03:33N 50°56' E 001°32'3716.6
2015-Feb-27 01:19N 50°28' E 000°54'1418.4
2015-Feb-27 00:33N 50°23' E 000°32'6815.9
2015-Feb-26 20:16N 50°20' W 001°14'1216.3
2015-Feb-26 19:33N 50°21' W 001°32'1716.7
2015-Feb-26 18:33N 50°22' W 001°58'1817.7
2015-Feb-26 17:31N 50°23' W 002°27'1818.6
2015-Feb-26 16:32N 50°23' W 002°55'1717.4
2015-Feb-26 15:33N 50°23' W 003°22'9 9.0
2015-Feb-26 14:34N 50°15' W 003°28'  
2015-Feb-23 02:33N 39°10' W 009°50'1616.4
2015-Feb-23 01:33N 38°53' W 009°50'1616.5
2015-Feb-23 00:33N 38°37' W 009°50'1615.9
2015-Feb-22 23:33N 38°21' W 009°44'1616.5
2015-Feb-22 22:33N 38°05' W 009°40'1616.5
2015-Feb-22 21:33N 37°49' W 009°35'1616.4
2015-Feb-22 20:33N 37°34' W 009°29'6114.4
2015-Feb-22 16:20N 36°42' W 008°50'1316.6
2015-Feb-22 15:33N 36°39' W 008°34'14916.6
2015-Feb-22 06:33N 35°58' W 005°36'1514.9
2015-Feb-22 05:33N 36°02' W 005°18'  
Track history (hours):
 
Tides and Currents Weather Stations Pressure Air Temp Water Temp Dewpoint Dewpoint Depression Visibility Wind Speed Wind Dir Waves Ship Positions

Sincerity Ace

Last reported at 2015-Feb-28 15:31 UTC. Time now 2015-Feb-28 16:02 UTC.
Position N 51°16' E 004°14'.

Length 200 m; draft 8.9 m.

Type: Cargo ship. MMSI: 351690000.

Date/timePositionNaut miles runAvg speedWind from/ knotsBaromVisibWave heightAir tempDewpointWater temp
2015-Feb-28 15:31N 51°16' E 004°14'0 0.0
2015-Feb-28 14:31N 51°16' E 004°14'0 0.0
2015-Feb-28 13:31N 51°16' E 004°14'0 0.0
2015-Feb-28 12:31N 51°16' E 004°14'0 0.0
2015-Feb-28 11:28N 51°16' E 004°14'0 0.0
2015-Feb-28 10:31N 51°16' E 004°14'0 0.0
2015-Feb-28 09:31N 51°16' E 004°14'0 0.0
2015-Feb-28 08:31N 51°16' E 004°14'0 0.0
2015-Feb-28 07:31N 51°16' E 004°14'0 0.0
2015-Feb-28 06:31N 51°16' E 004°14'1 1.1
2015-Feb-28 05:34N 51°16' E 004°16'0 0.4
2015-Feb-28 04:34N 51°16' E 004°17'4 4.5
2015-Feb-28 03:34N 51°20' E 004°16'7 6.6
2015-Feb-28 02:33N 51°22' E 004°06'8 8.0
2015-Feb-28 01:33N 51°21' E 003°53'1110.9
2015-Feb-28 00:33N 51°26' E 003°38'10 9.9
2015-Feb-27 23:33N 51°24' E 003°22'7 7.1
2015-Feb-27 22:33N 51°20' E 003°13'1 0.8
2015-Feb-27 21:33N 51°19' E 003°13'1 0.9
2015-Feb-27 20:32N 51°18' E 003°14'0 0.0
2015-Feb-27 19:32N 51°18' E 003°14'0 0.0
2015-Feb-27 18:32N 51°18' E 003°14'0 0.0
2015-Feb-27 17:32N 51°18' E 003°14'0 0.0
2015-Feb-27 16:32N 51°18' E 003°14'0 0.0
2015-Feb-27 15:32N 51°18' E 003°14'0 0.0
2015-Feb-27 14:32N 51°18' E 003°14'0 0.0
2015-Feb-27 13:32N 51°18' E 003°14'0 0.0
2015-Feb-27 12:32N 51°18' E 003°14'0 0.0
2015-Feb-27 11:32N 51°18' E 003°14'0 0.0
2015-Feb-27 10:33N 51°18' E 003°14'1 0.6
2015-Feb-27 09:33N 51°19' E 003°13'1 1.1
2015-Feb-27 08:33N 51°20' E 003°13'9 8.9
2015-Feb-27 07:33N 51°23' E 003°00'1212.3
2015-Feb-27 06:33N 51°22' E 002°40'1616.1
2015-Feb-27 05:33N 51°17' E 002°16'1817.8
2015-Feb-27 04:33N 51°08' E 001°52'1717.4
2015-Feb-27 03:33N 50°56' E 001°32'3716.6
2015-Feb-27 01:19N 50°28' E 000°54'1418.4
2015-Feb-27 00:33N 50°23' E 000°32'6815.9
2015-Feb-26 20:16N 50°20' W 001°14'1216.3
2015-Feb-26 19:33N 50°21' W 001°32'1716.7
2015-Feb-26 18:33N 50°22' W 001°58'1817.7
2015-Feb-26 17:31N 50°23' W 002°27'1818.6
2015-Feb-26 16:32N 50°23' W 002°55'1717.4
2015-Feb-26 15:33N 50°23' W 003°22'9 9.0
2015-Feb-26 14:34N 50°15' W 003°28'  
2015-Feb-23 02:33N 39°10' W 009°50'1616.4
2015-Feb-23 01:33N 38°53' W 009°50'1616.5
2015-Feb-23 00:33N 38°37' W 009°50'1615.9
2015-Feb-22 23:33N 38°21' W 009°44'1616.5
2015-Feb-22 22:33N 38°05' W 009°40'1616.5
2015-Feb-22 21:33N 37°49' W 009°35'1616.4
2015-Feb-22 20:33N 37°34' W 009°29'6114.4
2015-Feb-22 16:20N 36°42' W 008°50'1316.6
2015-Feb-22 15:33N 36°39' W 008°34'14916.6
2015-Feb-22 06:33N 35°58' W 005°36'1514.9
2015-Feb-22 05:33N 36°02' W 005°18'  

Dump ship's entire track history